sensor_id;sensor_type;location;lat;lon;timestamp;pressure;altitude;pressure_sealevel;temperature;humidity
68712;BME280;55690;51.566;19.198;2023-03-22T00:02:25;101599.11;;;6.86;82.85
68712;BME280;55690;51.566;19.198;2023-03-22T00:06:31;101595.59;;;6.84;82.74
68712;BME280;55690;51.566;19.198;2023-03-22T00:10:38;101592.15;;;6.81;83.26
68712;BME280;55690;51.566;19.198;2023-03-22T00:14:43;101587.98;;;6.74;83.75
68712;BME280;55690;51.566;19.198;2023-03-22T00:18:50;101573.59;;;6.73;82.66
68712;BME280;55690;51.566;19.198;2023-03-22T00:22:56;101573.20;;;6.82;82.83
68712;BME280;55690;51.566;19.198;2023-03-22T00:27:02;101583.72;;;6.68;83.65
68712;BME280;55690;51.566;19.198;2023-03-22T00:31:09;101578.19;;;6.71;83.33
68712;BME280;55690;51.566;19.198;2023-03-22T00:35:14;101579.46;;;6.83;83.14
68712;BME280;55690;51.566;19.198;2023-03-22T00:39:21;101583.72;;;6.88;83.14
68712;BME280;55690;51.566;19.198;2023-03-22T00:43:27;101574.68;;;7.08;82.68
68712;BME280;55690;51.566;19.198;2023-03-22T00:47:33;101564.09;;;7.04;83.37
68712;BME280;55690;51.566;19.198;2023-03-22T00:51:39;101565.66;;;7.28;82.81
68712;BME280;55690;51.566;19.198;2023-03-22T00:55:45;101567.91;;;7.18;84.75
68712;BME280;55690;51.566;19.198;2023-03-22T00:59:51;101566.16;;;7.17;85.51
68712;BME280;55690;51.566;19.198;2023-03-22T01:03:58;101562.74;;;7.32;85.43
68712;BME280;55690;51.566;19.198;2023-03-22T01:08:05;101552.56;;;7.38;84.91
68712;BME280;55690;51.566;19.198;2023-03-22T01:12:10;101556.88;;;7.42;85.59
68712;BME280;55690;51.566;19.198;2023-03-22T01:16:17;101544.75;;;7.50;87.00
68712;BME280;55690;51.566;19.198;2023-03-22T01:20:23;101542.34;;;7.63;87.61
68712;BME280;55690;51.566;19.198;2023-03-22T01:24:29;101538.66;;;8.00;85.53
68712;BME280;55690;51.566;19.198;2023-03-22T01:28:35;101531.19;;;8.05;84.93
68712;BME280;55690;51.566;19.198;2023-03-22T01:32:41;101526.74;;;8.04;86.57
68712;BME280;55690;51.566;19.198;2023-03-22T01:36:47;101531.84;;;8.10;86.00
68712;BME280;55690;51.566;19.198;2023-03-22T01:40:53;101522.20;;;8.05;88.17
68712;BME280;55690;51.566;19.198;2023-03-22T01:49:15;101515.51;;;8.29;88.18
68712;BME280;55690;51.566;19.198;2023-03-22T01:53:17;101511.79;;;8.14;88.71
68712;BME280;55690;51.566;19.198;2023-03-22T01:57:23;101511.15;;;8.09;89.89
68712;BME280;55690;51.566;19.198;2023-03-22T02:01:26;101513.31;;;8.20;90.01
68712;BME280;55690;51.566;19.198;2023-03-22T02:05:31;101495.41;;;8.34;89.34
68712;BME280;55690;51.566;19.198;2023-03-22T02:09:37;101482.83;;;8.51;89.53
68712;BME280;55690;51.566;19.198;2023-03-22T02:30:58;101469.45;;;8.48;94.02
68712;BME280;55690;51.566;19.198;2023-03-22T02:43:36;101476.94;;;8.76;95.66
68712;BME280;55690;51.566;19.198;2023-03-22T02:52:12;101468.52;;;8.97;95.11
68712;BME280;55690;51.566;19.198;2023-03-22T02:56:24;101459.34;;;9.00;95.13
68712;BME280;55690;51.566;19.198;2023-03-22T03:00:30;101453.30;;;8.95;95.72
68712;BME280;55690;51.566;19.198;2023-03-22T03:04:41;101461.34;;;9.12;94.99
68712;BME280;55690;51.566;19.198;2023-03-22T03:08:47;101455.74;;;9.15;94.88
68712;BME280;55690;51.566;19.198;2023-03-22T03:12:50;101449.38;;;9.32;93.15
68712;BME280;55690;51.566;19.198;2023-03-22T03:25:26;101436.77;;;8.84;95.89
68712;BME280;55690;51.566;19.198;2023-03-22T03:29:41;101435.98;;;8.82;95.89
68712;BME280;55690;51.566;19.198;2023-03-22T03:34:01;101428.05;;;8.94;96.30
68712;BME280;55690;51.566;19.198;2023-03-22T03:38:07;101437.31;;;8.90;96.73
68712;BME280;55690;51.566;19.198;2023-03-22T03:42:14;101440.47;;;8.98;97.03
68712;BME280;55690;51.566;19.198;2023-03-22T03:46:17;101431.82;;;9.08;96.49
68712;BME280;55690;51.566;19.198;2023-03-22T03:50:18;101432.88;;;9.05;97.05
68712;BME280;55690;51.566;19.198;2023-03-22T03:54:21;101433.19;;;9.15;96.57
68712;BME280;55690;51.566;19.198;2023-03-22T03:58:23;101435.73;;;9.33;95.82
68712;BME280;55690;51.566;19.198;2023-03-22T04:02:24;101423.14;;;9.32;95.31
68712;BME280;55690;51.566;19.198;2023-03-22T04:06:26;101425.33;;;9.42;95.29
68712;BME280;55690;51.566;19.198;2023-03-22T04:10:28;101420.91;;;9.55;94.85
68712;BME280;55690;51.566;19.198;2023-03-22T04:14:30;101428.24;;;9.68;94.59
68712;BME280;55690;51.566;19.198;2023-03-22T04:18:32;101419.59;;;9.62;94.80
68712;BME280;55690;51.566;19.198;2023-03-22T04:22:33;101422.66;;;9.56;95.43
68712;BME280;55690;51.566;19.198;2023-03-22T04:26:39;101428.64;;;9.47;95.56
68712;BME280;55690;51.566;19.198;2023-03-22T04:30:41;101419.94;;;9.56;95.64
68712;BME280;55690;51.566;19.198;2023-03-22T04:34:45;101425.37;;;9.56;95.50
68712;BME280;55690;51.566;19.198;2023-03-22T04:38:47;101425.85;;;9.78;94.71
68712;BME280;55690;51.566;19.198;2023-03-22T04:42:48;101429.80;;;9.73;94.67
68712;BME280;55690;51.566;19.198;2023-03-22T04:46:51;101429.00;;;10.00;93.80
68712;BME280;55690;51.566;19.198;2023-03-22T04:50:52;101431.81;;;9.99;93.92
68712;BME280;55690;51.566;19.198;2023-03-22T04:54:54;101423.89;;;10.10;93.63
68712;BME280;55690;51.566;19.198;2023-03-22T04:58:55;101426.88;;;10.06;94.39
68712;BME280;55690;51.566;19.198;2023-03-22T05:02:57;101428.87;;;10.18;93.94
68712;BME280;55690;51.566;19.198;2023-03-22T05:06:59;101432.73;;;10.14;94.46
68712;BME280;55690;51.566;19.198;2023-03-22T05:11:07;101424.40;;;10.17;94.99
68712;BME280;55690;51.566;19.198;2023-03-22T05:15:09;101423.48;;;10.46;94.57
68712;BME280;55690;51.566;19.198;2023-03-22T05:19:11;101418.73;;;10.21;95.97
68712;BME280;55690;51.566;19.198;2023-03-22T05:23:16;101425.23;;;10.03;97.00
68712;BME280;55690;51.566;19.198;2023-03-22T05:27:21;101428.44;;;10.54;95.34
68712;BME280;55690;51.566;19.198;2023-03-22T05:31:30;101427.68;;;10.80;94.51
68712;BME280;55690;51.566;19.198;2023-03-22T05:35:36;101433.29;;;10.63;95.26
68712;BME280;55690;51.566;19.198;2023-03-22T05:39:38;101423.21;;;10.79;94.49
68712;BME280;55690;51.566;19.198;2023-03-22T05:43:40;101432.90;;;10.55;95.82
68712;BME280;55690;51.566;19.198;2023-03-22T05:47:42;101427.09;;;10.61;95.99
68712;BME280;55690;51.566;19.198;2023-03-22T05:51:45;101432.05;;;10.83;94.78
68712;BME280;55690;51.566;19.198;2023-03-22T05:55:47;101429.48;;;10.94;94.11
68712;BME280;55690;51.566;19.198;2023-03-22T05:59:48;101431.90;;;10.98;93.97
68712;BME280;55690;51.566;19.198;2023-03-22T06:03:53;101414.43;;;11.03;93.00
68712;BME280;55690;51.566;19.198;2023-03-22T06:07:55;101437.27;;;10.72;94.86
68712;BME280;55690;51.566;19.198;2023-03-22T06:11:57;101438.30;;;10.83;94.68
68712;BME280;55690;51.566;19.198;2023-03-22T06:16:02;101443.25;;;11.05;93.92
68712;BME280;55690;51.566;19.198;2023-03-22T06:20:05;101436.70;;;10.81;95.01
68712;BME280;55690;51.566;19.198;2023-03-22T06:24:11;101439.02;;;10.58;95.14
68712;BME280;55690;51.566;19.198;2023-03-22T06:28:13;101441.16;;;10.68;95.52
68712;BME280;55690;51.566;19.198;2023-03-22T06:32:14;101431.60;;;11.03;94.52
68712;BME280;55690;51.566;19.198;2023-03-22T06:36:19;101443.68;;;10.71;96.21
68712;BME280;55690;51.566;19.198;2023-03-22T06:40:25;101434.01;;;11.22;93.63
68712;BME280;55690;51.566;19.198;2023-03-22T06:44:31;101429.33;;;10.83;96.07
68712;BME280;55690;51.566;19.198;2023-03-22T06:48:38;101424.71;;;11.39;93.59
68712;BME280;55690;51.566;19.198;2023-03-22T06:52:44;101424.71;;;11.39;93.91
68712;BME280;55690;51.566;19.198;2023-03-22T06:56:50;101426.56;;;11.38;93.96
68712;BME280;55690;51.566;19.198;2023-03-22T07:00:56;101417.99;;;11.44;93.89
68712;BME280;55690;51.566;19.198;2023-03-22T07:05:03;101416.17;;;11.04;94.74
68712;BME280;55690;51.566;19.198;2023-03-22T07:09:08;101419.13;;;11.54;93.51
68712;BME280;55690;51.566;19.198;2023-03-22T07:13:15;101417.09;;;11.71;93.90
68712;BME280;55690;51.566;19.198;2023-03-22T07:17:21;101415.24;;;11.71;94.77
68712;BME280;55690;51.566;19.198;2023-03-22T07:21:27;101411.63;;;11.85;94.79
68712;BME280;55690;51.566;19.198;2023-03-22T07:25:33;101400.19;;;11.80;94.84
68712;BME280;55690;51.566;19.198;2023-03-22T07:29:39;101404.82;;;12.05;95.00
68712;BME280;55690;51.566;19.198;2023-03-22T07:33:46;101391.75;;;12.22;94.39
68712;BME280;55690;51.566;19.198;2023-03-22T07:37:52;101383.05;;;12.55;93.63
68712;BME280;55690;51.566;19.198;2023-03-22T07:41:58;101383.00;;;12.68;92.81
68712;BME280;55690;51.566;19.198;2023-03-22T07:46:04;101388.55;;;12.66;93.25
68712;BME280;55690;51.566;19.198;2023-03-22T07:50:11;101380.64;;;12.25;94.01
68712;BME280;55690;51.566;19.198;2023-03-22T07:54:16;101380.86;;;12.35;93.97
68712;BME280;55690;51.566;19.198;2023-03-22T07:58:23;101370.91;;;12.72;92.31
68712;BME280;55690;51.566;19.198;2023-03-22T08:02:29;101367.84;;;13.13;91.70
68712;BME280;55690;51.566;19.198;2023-03-22T08:06:36;101372.71;;;12.97;90.09
68712;BME280;55690;51.566;19.198;2023-03-22T08:10:41;101383.77;;;13.67;91.01
68712;BME280;55690;51.566;19.198;2023-03-22T08:14:47;101388.02;;;13.11;90.40
68712;BME280;55690;51.566;19.198;2023-03-22T08:18:53;101381.85;;;13.56;89.15
68712;BME280;55690;51.566;19.198;2023-03-22T08:23:00;101392.24;;;13.75;88.71
68712;BME280;55690;51.566;19.198;2023-03-22T08:27:06;101382.92;;;14.13;89.26
68712;BME280;55690;51.566;19.198;2023-03-22T08:31:14;101368.78;;;14.30;87.94
68712;BME280;55690;51.566;19.198;2023-03-22T08:35:19;101376.26;;;14.28;88.07
68712;BME280;55690;51.566;19.198;2023-03-22T08:39:24;101373.14;;;14.21;87.56
68712;BME280;55690;51.566;19.198;2023-03-22T08:43:30;101385.23;;;14.41;88.04
68712;BME280;55690;51.566;19.198;2023-03-22T08:47:37;101380.16;;;14.70;86.76
68712;BME280;55690;51.566;19.198;2023-03-22T08:51:43;101381.98;;;15.14;86.78
68712;BME280;55690;51.566;19.198;2023-03-22T08:55:49;101378.02;;;14.96;86.80
68712;BME280;55690;51.566;19.198;2023-03-22T08:59:56;101369.20;;;14.81;86.23
68712;BME280;55690;51.566;19.198;2023-03-22T09:04:02;101362.23;;;14.77;86.95
68712;BME280;55690;51.566;19.198;2023-03-22T09:08:08;101356.00;;;15.09;86.29
68712;BME280;55690;51.566;19.198;2023-03-22T09:12:14;101351.77;;;15.05;86.66
68712;BME280;55690;51.566;19.198;2023-03-22T09:16:20;101341.64;;;15.91;85.64
68712;BME280;55690;51.566;19.198;2023-03-22T09:20:26;101342.51;;;15.92;84.52
68712;BME280;55690;51.566;19.198;2023-03-22T09:24:32;101341.56;;;15.82;84.17
68712;BME280;55690;51.566;19.198;2023-03-22T09:28:38;101339.11;;;16.00;83.66
68712;BME280;55690;51.566;19.198;2023-03-22T09:32:45;101343.98;;;15.96;83.36
68712;BME280;55690;51.566;19.198;2023-03-22T09:36:51;101332.78;;;16.29;83.02
68712;BME280;55690;51.566;19.198;2023-03-22T09:41:04;101336.50;;;15.98;83.77
68712;BME280;55690;51.566;19.198;2023-03-22T09:45:13;101343.17;;;15.84;83.99
68712;BME280;55690;51.566;19.198;2023-03-22T09:49:21;101342.70;;;15.79;84.05
68712;BME280;55690;51.566;19.198;2023-03-22T09:53:26;101331.93;;;16.08;82.45
68712;BME280;55690;51.566;19.198;2023-03-22T09:57:32;101326.30;;;16.30;83.08
68712;BME280;55690;51.566;19.198;2023-03-22T10:01:44;101329.71;;;16.23;82.85
68712;BME280;55690;51.566;19.198;2023-03-22T10:05:52;101313.12;;;16.45;82.27
68712;BME280;55690;51.566;19.198;2023-03-22T10:18:37;101332.13;;;16.68;81.87
68712;BME280;55690;51.566;19.198;2023-03-22T10:22:44;101319.27;;;16.68;80.17
68712;BME280;55690;51.566;19.198;2023-03-22T10:26:47;101320.27;;;17.17;80.13
68712;BME280;55690;51.566;19.198;2023-03-22T10:34:06;101321.16;;;17.27;79.22
68712;BME280;55690;51.566;19.198;2023-03-22T10:38:17;101323.02;;;17.36;79.60
68712;BME280;55690;51.566;19.198;2023-03-22T10:42:26;101318.60;;;17.74;78.62
68712;BME280;55690;51.566;19.198;2023-03-22T10:46:37;101314.08;;;17.53;79.37
68712;BME280;55690;51.566;19.198;2023-03-22T10:50:42;101322.03;;;17.27;77.41
68712;BME280;55690;51.566;19.198;2023-03-22T10:54:45;101316.24;;;17.40;76.94
68712;BME280;55690;51.566;19.198;2023-03-22T10:58:48;101301.50;;;17.89;78.61
68712;BME280;55690;51.566;19.198;2023-03-22T11:02:52;101291.81;;;17.85;77.24
68712;BME280;55690;51.566;19.198;2023-03-22T11:06:54;101285.45;;;17.85;76.90
68712;BME280;55690;51.566;19.198;2023-03-22T11:10:59;101277.75;;;18.08;77.33
68712;BME280;55690;51.566;19.198;2023-03-22T11:15:06;101280.58;;;17.69;77.26
68712;BME280;55690;51.566;19.198;2023-03-22T11:19:24;101279.00;;;17.67;78.65
68712;BME280;55690;51.566;19.198;2023-03-22T11:23:31;101270.89;;;17.65;77.96
68712;BME280;55690;51.566;19.198;2023-03-22T11:27:34;101268.82;;;17.86;77.19
68712;BME280;55690;51.566;19.198;2023-03-22T11:35:58;101251.04;;;18.27;75.51
68712;BME280;55690;51.566;19.198;2023-03-22T11:40:01;101238.35;;;18.81;74.91
68712;BME280;55690;51.566;19.198;2023-03-22T11:44:08;101247.58;;;19.25;75.40
68712;BME280;55690;51.566;19.198;2023-03-22T11:48:18;101249.70;;;19.14;75.35
68712;BME280;55690;51.566;19.198;2023-03-22T11:52:24;101250.37;;;18.80;74.91
68712;BME280;55690;51.566;19.198;2023-03-22T11:56:28;101239.61;;;18.87;75.02
68712;BME280;55690;51.566;19.198;2023-03-22T12:00:35;101230.05;;;18.64;75.70
68712;BME280;55690;51.566;19.198;2023-03-22T12:04:40;101230.90;;;18.91;75.80
68712;BME280;55690;51.566;19.198;2023-03-22T12:08:46;101222.80;;;18.90;75.44
68712;BME280;55690;51.566;19.198;2023-03-22T12:12:57;101226.91;;;19.04;74.43
68712;BME280;55690;51.566;19.198;2023-03-22T12:17:14;101222.25;;;19.40;74.71
68712;BME280;55690;51.566;19.198;2023-03-22T12:21:12;101217.21;;;19.17;74.90
68712;BME280;55690;51.566;19.198;2023-03-22T12:25:15;101209.88;;;19.08;73.98
68712;BME280;55690;51.566;19.198;2023-03-22T12:29:18;101198.59;;;18.93;73.73
68712;BME280;55690;51.566;19.198;2023-03-22T12:37:34;101190.53;;;19.53;73.50
68712;BME280;55690;51.566;19.198;2023-03-22T12:41:39;101180.39;;;19.80;73.11
68712;BME280;55690;51.566;19.198;2023-03-22T12:45:45;101173.25;;;19.69;73.01
68712;BME280;55690;51.566;19.198;2023-03-22T12:49:55;101174.24;;;19.42;72.78
68712;BME280;55690;51.566;19.198;2023-03-22T12:54:00;101182.29;;;19.18;73.17
68712;BME280;55690;51.566;19.198;2023-03-22T12:58:07;101179.73;;;19.60;72.67
68712;BME280;55690;51.566;19.198;2023-03-22T13:02:15;101168.65;;;19.52;72.35
68712;BME280;55690;51.566;19.198;2023-03-22T13:10:39;101163.74;;;19.64;71.95
68712;BME280;55690;51.566;19.198;2023-03-22T13:19:00;101153.68;;;19.54;70.99
68712;BME280;55690;51.566;19.198;2023-03-22T13:23:03;101155.70;;;19.70;69.89
68712;BME280;55690;51.566;19.198;2023-03-22T13:27:11;101157.37;;;19.63;70.17
68712;BME280;55690;51.566;19.198;2023-03-22T13:39:50;101141.22;;;19.68;71.21
68712;BME280;55690;51.566;19.198;2023-03-22T13:43:55;101124.46;;;19.87;70.33
68712;BME280;55690;51.566;19.198;2023-03-22T13:48:04;101133.27;;;19.99;70.34
68712;BME280;55690;51.566;19.198;2023-03-22T13:52:18;101129.11;;;19.87;68.50
68712;BME280;55690;51.566;19.198;2023-03-22T14:00:38;101124.63;;;20.36;67.74
68712;BME280;55690;51.566;19.198;2023-03-22T14:09:01;101126.25;;;19.71;65.96
68712;BME280;55690;51.566;19.198;2023-03-22T14:17:30;101126.35;;;19.87;66.47
68712;BME280;55690;51.566;19.198;2023-03-22T14:21:38;101131.00;;;19.60;66.92
68712;BME280;55690;51.566;19.198;2023-03-22T14:25:44;101122.73;;;19.60;66.19
68712;BME280;55690;51.566;19.198;2023-03-22T14:29:48;101129.12;;;19.61;66.66
68712;BME280;55690;51.566;19.198;2023-03-22T14:33:50;101111.98;;;19.75;66.81
68712;BME280;55690;51.566;19.198;2023-03-22T14:37:53;101106.82;;;20.14;67.03
68712;BME280;55690;51.566;19.198;2023-03-22T14:42:02;101107.68;;;20.15;66.57
68712;BME280;55690;51.566;19.198;2023-03-22T14:50:20;101110.11;;;20.18;67.18
68712;BME280;55690;51.566;19.198;2023-03-22T14:54:27;101101.76;;;20.02;68.23
68712;BME280;55690;51.566;19.198;2023-03-22T14:58:33;101102.63;;;20.02;67.44
68712;BME280;55690;51.566;19.198;2023-03-22T15:02:40;101084.98;;;19.53;67.43
68712;BME280;55690;51.566;19.198;2023-03-22T15:06:47;101088.66;;;19.62;66.85
68712;BME280;55690;51.566;19.198;2023-03-22T15:10:57;101085.42;;;20.08;67.14
68712;BME280;55690;51.566;19.198;2023-03-22T15:14:59;101072.34;;;20.10;67.02
68712;BME280;55690;51.566;19.198;2023-03-22T15:19:02;101078.75;;;19.77;67.68
68712;BME280;55690;51.566;19.198;2023-03-22T15:27:19;101071.93;;;19.97;67.62
68712;BME280;55690;51.566;19.198;2023-03-22T15:31:28;101058.91;;;20.15;67.57
68712;BME280;55690;51.566;19.198;2023-03-22T15:35:32;101065.00;;;19.51;68.02
68712;BME280;55690;51.566;19.198;2023-03-22T15:39:39;101068.66;;;19.59;67.26
68712;BME280;55690;51.566;19.198;2023-03-22T15:43:44;101058.52;;;19.60;67.80
68712;BME280;55690;51.566;19.198;2023-03-22T15:52:08;101056.14;;;19.39;67.95
68712;BME280;55690;51.566;19.198;2023-03-22T15:56:25;101056.52;;;19.44;68.68
68712;BME280;55690;51.566;19.198;2023-03-22T16:00:30;101046.58;;;19.25;69.12
68712;BME280;55690;51.566;19.198;2023-03-22T16:04:33;101058.62;;;19.24;69.30
68712;BME280;55690;51.566;19.198;2023-03-22T16:08:35;101051.70;;;19.20;69.35
68712;BME280;55690;51.566;19.198;2023-03-22T16:12:37;101057.76;;;19.24;69.52
68712;BME280;55690;51.566;19.198;2023-03-22T16:16:39;101053.43;;;19.21;69.81
68712;BME280;55690;51.566;19.198;2023-03-22T16:20:41;101053.59;;;18.94;70.20
68712;BME280;55690;51.566;19.198;2023-03-22T16:24:43;101051.38;;;18.98;70.47
68712;BME280;55690;51.566;19.198;2023-03-22T16:28:49;101056.66;;;18.91;70.52
68712;BME280;55690;51.566;19.198;2023-03-22T16:32:51;101058.16;;;18.85;70.68
68712;BME280;55690;51.566;19.198;2023-03-22T16:36:53;101055.34;;;18.77;70.78
68712;BME280;55690;51.566;19.198;2023-03-22T16:40:55;101062.09;;;18.83;70.79
68712;BME280;55690;51.566;19.198;2023-03-22T16:44:57;101067.28;;;18.68;71.20
68712;BME280;55690;51.566;19.198;2023-03-22T16:48:58;101075.18;;;18.36;71.64
68712;BME280;55690;51.566;19.198;2023-03-22T16:53:00;101030.82;;;17.85;72.32
68712;BME280;55690;51.566;19.198;2023-03-22T16:57:02;101078.75;;;18.01;72.87
68712;BME280;55690;51.566;19.198;2023-03-22T17:01:05;101071.88;;;17.87;72.87
68712;BME280;55690;51.566;19.198;2023-03-22T17:05:07;101087.87;;;17.64;73.29
68712;BME280;55690;51.566;19.198;2023-03-22T17:09:09;101088.10;;;17.80;73.25
68712;BME280;55690;51.566;19.198;2023-03-22T17:13:13;101098.89;;;17.54;73.77
68712;BME280;55690;51.566;19.198;2023-03-22T17:17:18;101090.30;;;17.30;74.46
68712;BME280;55690;51.566;19.198;2023-03-22T17:21:20;101092.50;;;17.17;74.87
68712;BME280;55690;51.566;19.198;2023-03-22T17:25:29;101095.82;;;17.11;74.00
68712;BME280;55690;51.566;19.198;2023-03-22T17:29:31;101091.21;;;17.02;73.97
68712;BME280;55690;51.566;19.198;2023-03-22T17:33:33;101103.05;;;16.92;74.39
68712;BME280;55690;51.566;19.198;2023-03-22T17:37:35;101093.79;;;17.13;73.50
68712;BME280;55690;51.566;19.198;2023-03-22T17:41:36;101100.77;;;16.88;74.52
68712;BME280;55690;51.566;19.198;2023-03-22T17:45:38;101092.98;;;16.64;75.58
68712;BME280;55690;51.566;19.198;2023-03-22T17:49:39;101100.44;;;16.43;76.13
68712;BME280;55690;51.566;19.198;2023-03-22T17:53:41;101100.42;;;16.33;75.90
68712;BME280;55690;51.566;19.198;2023-03-22T17:57:43;101109.52;;;16.34;76.49
68712;BME280;55690;51.566;19.198;2023-03-22T18:01:46;101113.10;;;16.24;76.13
68712;BME280;55690;51.566;19.198;2023-03-22T18:05:48;101099.79;;;16.01;76.97
68712;BME280;55690;51.566;19.198;2023-03-22T18:09:50;101106.51;;;15.87;77.58
68712;BME280;55690;51.566;19.198;2023-03-22T18:13:51;101104.91;;;15.84;76.93
68712;BME280;55690;51.566;19.198;2023-03-22T18:17:53;101092.77;;;15.47;78.39
68712;BME280;55690;51.566;19.198;2023-03-22T18:21:56;101100.46;;;15.32;78.84
68712;BME280;55690;51.566;19.198;2023-03-22T18:26:03;101089.64;;;15.30;78.58
68712;BME280;55690;51.566;19.198;2023-03-22T18:30:07;101086.47;;;15.05;79.49
68712;BME280;55690;51.566;19.198;2023-03-22T18:34:09;101084.20;;;14.89;79.70
68712;BME280;55690;51.566;19.198;2023-03-22T18:38:11;101085.67;;;14.72;79.87
68712;BME280;55690;51.566;19.198;2023-03-22T18:42:17;101092.79;;;14.63;81.05
68712;BME280;55690;51.566;19.198;2023-03-22T18:46:23;101090.61;;;14.46;81.48
68712;BME280;55690;51.566;19.198;2023-03-22T18:50:29;101094.83;;;14.39;81.81
68712;BME280;55690;51.566;19.198;2023-03-22T18:54:36;101088.60;;;14.05;82.26
68712;BME280;55690;51.566;19.198;2023-03-22T18:58:42;101085.95;;;14.26;82.13
68712;BME280;55690;51.566;19.198;2023-03-22T19:02:48;101089.72;;;14.03;82.99
68712;BME280;55690;51.566;19.198;2023-03-22T19:06:54;101084.50;;;13.99;82.88
68712;BME280;55690;51.566;19.198;2023-03-22T19:11:01;101081.20;;;13.85;82.50
68712;BME280;55690;51.566;19.198;2023-03-22T19:15:08;101079.96;;;13.78;83.50
68712;BME280;55690;51.566;19.198;2023-03-22T19:19:12;101076.81;;;13.93;83.83
68712;BME280;55690;51.566;19.198;2023-03-22T19:23:19;101075.34;;;13.89;83.06
68712;BME280;55690;51.566;19.198;2023-03-22T19:27:25;101060.37;;;13.73;83.33
68712;BME280;55690;51.566;19.198;2023-03-22T19:31:31;101068.56;;;13.61;82.92
68712;BME280;55690;51.566;19.198;2023-03-22T19:35:37;101068.31;;;13.20;83.89
68712;BME280;55690;51.566;19.198;2023-03-22T19:39:44;101063.97;;;13.17;84.56
68712;BME280;55690;51.566;19.198;2023-03-22T19:43:50;101074.34;;;13.12;85.42
68712;BME280;55690;51.566;19.198;2023-03-22T19:47:56;101069.23;;;13.08;85.23
68712;BME280;55690;51.566;19.198;2023-03-22T19:52:03;101058.38;;;13.19;84.40
68712;BME280;55690;51.566;19.198;2023-03-22T19:56:08;101064.88;;;12.83;86.44
68712;BME280;55690;51.566;19.198;2023-03-22T20:00:15;101059.22;;;12.97;85.00
68712;BME280;55690;51.566;19.198;2023-03-22T20:04:20;101053.88;;;12.95;85.09
68712;BME280;55690;51.566;19.198;2023-03-22T20:08:27;101057.49;;;12.61;85.34
68712;BME280;55690;51.566;19.198;2023-03-22T20:12:33;101053.53;;;12.54;86.35
68712;BME280;55690;51.566;19.198;2023-03-22T20:16:39;101049.93;;;12.53;87.24
68712;BME280;55690;51.566;19.198;2023-03-22T20:20:48;101046.70;;;12.59;86.65
68712;BME280;55690;51.566;19.198;2023-03-22T20:24:52;101049.18;;;12.51;86.41
68712;BME280;55690;51.566;19.198;2023-03-22T20:28:57;101044.08;;;12.47;86.50
68712;BME280;55690;51.566;19.198;2023-03-22T20:33:04;101045.47;;;12.52;86.33
68712;BME280;55690;51.566;19.198;2023-03-22T20:37:10;101043.73;;;12.51;86.15
68712;BME280;55690;51.566;19.198;2023-03-22T20:41:16;101041.20;;;12.37;84.88
68712;BME280;55690;51.566;19.198;2023-03-22T20:45:22;101048.38;;;12.14;86.48
68712;BME280;55690;51.566;19.198;2023-03-22T20:49:28;101046.04;;;12.10;86.91
68712;BME280;55690;51.566;19.198;2023-03-22T20:53:34;101049.13;;;12.16;86.80
68712;BME280;55690;51.566;19.198;2023-03-22T20:57:41;101048.28;;;11.92;88.33
68712;BME280;55690;51.566;19.198;2023-03-22T21:01:47;101046.42;;;11.92;88.59
68712;BME280;55690;51.566;19.198;2023-03-22T21:05:53;101037.96;;;11.84;88.02
68712;BME280;55690;51.566;19.198;2023-03-22T21:09:59;101035.88;;;11.75;88.41
68712;BME280;55690;51.566;19.198;2023-03-22T21:14:06;101035.77;;;11.89;88.34
68712;BME280;55690;51.566;19.198;2023-03-22T21:18:12;101030.95;;;11.93;87.30
68712;BME280;55690;51.566;19.198;2023-03-22T21:22:21;101027.41;;;11.80;87.99
68712;BME280;55690;51.566;19.198;2023-03-22T21:26:24;101017.56;;;12.14;86.36
68712;BME280;55690;51.566;19.198;2023-03-22T21:30:30;101021.45;;;12.22;86.86
68712;BME280;55690;51.566;19.198;2023-03-22T21:34:36;101022.75;;;12.06;87.66
68712;BME280;55690;51.566;19.198;2023-03-22T21:38:42;101031.23;;;12.25;86.72
68712;BME280;55690;51.566;19.198;2023-03-22T21:42:55;101026.66;;;12.25;87.01
68712;BME280;55690;51.566;19.198;2023-03-22T21:46:59;101028.87;;;12.20;88.72
68712;BME280;55690;51.566;19.198;2023-03-22T21:51:02;101019.35;;;12.26;89.87
68712;BME280;55690;51.566;19.198;2023-03-22T21:55:08;101020.84;;;12.54;87.71
68712;BME280;55690;51.566;19.198;2023-03-22T21:59:13;101031.05;;;12.39;89.40
68712;BME280;55690;51.566;19.198;2023-03-22T22:03:20;101019.85;;;12.66;90.11
68712;BME280;55690;51.566;19.198;2023-03-22T22:07:26;101023.84;;;12.73;89.79
68712;BME280;55690;51.566;19.198;2023-03-22T22:11:32;101018.45;;;12.95;89.44
68712;BME280;55690;51.566;19.198;2023-03-22T22:15:38;101013.74;;;12.97;88.52
68712;BME280;55690;51.566;19.198;2023-03-22T22:19:44;100970.84;;;12.77;88.52
68712;BME280;55690;51.566;19.198;2023-03-22T22:23:50;101004.30;;;13.02;89.04
68712;BME280;55690;51.566;19.198;2023-03-22T22:27:57;101011.55;;;13.36;87.60
68712;BME280;55690;51.566;19.198;2023-03-22T22:32:03;101010.18;;;13.30;87.64
68712;BME280;55690;51.566;19.198;2023-03-22T22:36:09;101011.29;;;13.17;88.22
68712;BME280;55690;51.566;19.198;2023-03-22T22:40:15;101003.36;;;13.25;87.81
68712;BME280;55690;51.566;19.198;2023-03-22T22:44:21;101003.11;;;13.28;87.08
68712;BME280;55690;51.566;19.198;2023-03-22T22:48:27;100997.16;;;13.23;87.31
68712;BME280;55690;51.566;19.198;2023-03-22T22:52:38;100995.13;;;13.14;87.61
68712;BME280;55690;51.566;19.198;2023-03-22T22:56:40;101000.71;;;13.12;87.75